Mugan — 9HA2962 — position and weather

sailwx.info

Track history (hours):
 
Tides and Currents Weather Stations Pressure Air Temp Water Temp Dewpoint Dewpoint Depression Visibility Wind Speed Wind Dir Waves Ship Positions

Mugan

Last reported at 2016-May-30 19:33 UTC. Time now 2016-May-31 02:08 UTC.
Position N 32°37' E 029°24'.

Length 140 m; draft 4.6 m.

Type: Tanker. MMSI: 256914000.

Date/timePositionNaut miles runAvg speedWind from/ knotsBaromVisibWave heightAir tempDewpointWater temp
2016-May-30 19:33N 32°37' E 029°24'  
2016-May-28 00:13N 36°50' E 016°24'710.3
2016-May-27 23:33N 36°53' E 016°16'1010.3
2016-May-27 22:33N 36°57' E 016°04'1010.3
2016-May-27 21:32N 37°00' E 015°52'1010.2
2016-May-27 20:33N 37°03' E 015°39'1010.1
2016-May-27 19:32N 37°05' E 015°27'  
2016-May-23 18:33N 36°46' E 015°33'10 9.5
2016-May-23 17:31N 36°36' E 015°35'47 9.4
2016-May-23 12:33N 35°49' E 015°36'1 0.5
2016-May-23 11:33N 35°49' E 015°35'1 0.6
2016-May-23 10:33N 35°48' E 015°35'1 0.7
2016-May-23 09:32N 35°48' E 015°34'1 0.6
2016-May-23 08:33N 35°48' E 015°33'0 0.5
2016-May-23 07:31N 35°48' E 015°33'1 0.5
2016-May-23 06:24N 35°48' E 015°32'0 0.6
2016-May-23 05:33N 35°48' E 015°32'1 0.6
2016-May-23 04:33N 35°48' E 015°31'1 0.7
2016-May-23 03:33N 35°48' E 015°30'1 0.7
2016-May-23 02:33N 35°48' E 015°29'1 0.6
2016-May-23 01:33N 35°48' E 015°28'1 0.6
2016-May-23 00:33N 35°48' E 015°28'1 0.6
2016-May-22 23:32N 35°49' E 015°27'1 0.6
2016-May-22 22:32N 35°49' E 015°26'1 0.7
2016-May-22 21:33N 35°50' E 015°26'1 0.7
2016-May-22 20:33N 35°50' E 015°25'1 0.6
2016-May-22 19:33N 35°50' E 015°25'1 0.7
2016-May-22 18:34N 35°51' E 015°24'1 0.7
2016-May-22 17:33N 35°52' E 015°24'1 0.7
2016-May-22 16:33N 35°52' E 015°23'1 0.7
2016-May-22 15:33N 35°53' E 015°23'1 0.7
2016-May-22 14:33N 35°53' E 015°22'1 0.8
2016-May-22 13:34N 35°54' E 015°22'1 0.7
2016-May-22 12:33N 35°55' E 015°21'1 0.8
2016-May-22 11:33N 35°55' E 015°21'1 0.8
2016-May-22 10:33N 35°56' E 015°20'1 0.7
2016-May-22 09:33N 35°57' E 015°20'1 0.7
2016-May-22 08:33N 35°57' E 015°19'1 0.8
2016-May-22 07:34N 35°58' E 015°19'1 0.9
2016-May-22 06:18N 35°59' E 015°18'5 0.4
2016-May-21 18:33N 35°60' E 015°24'6 2.8
2016-May-21 16:30N 35°57' E 015°30'1 1.0
2016-May-21 15:31N 35°58' E 015°29'6 4.5
2016-May-21 14:06N 36°01' E 015°22'5 2.7
2016-May-21 12:11N 36°04' E 015°17'2 2.3
2016-May-21 11:33N 36°03' E 015°19'  
Track history (hours):
 
Tides and Currents Weather Stations Pressure Air Temp Water Temp Dewpoint Dewpoint Depression Visibility Wind Speed Wind Dir Waves Ship Positions

Mugan

Last reported at 2016-May-30 19:33 UTC. Time now 2016-May-31 02:08 UTC.
Position N 32°37' E 029°24'.

Length 140 m; draft 4.6 m.

Type: Tanker. MMSI: 256914000.

Date/timePositionNaut miles runAvg speedWind from/ knotsBaromVisibWave heightAir tempDewpointWater temp
2016-May-30 19:33N 32°37' E 029°24'  
2016-May-28 00:13N 36°50' E 016°24'710.3
2016-May-27 23:33N 36°53' E 016°16'1010.3
2016-May-27 22:33N 36°57' E 016°04'1010.3
2016-May-27 21:32N 37°00' E 015°52'1010.2
2016-May-27 20:33N 37°03' E 015°39'1010.1
2016-May-27 19:32N 37°05' E 015°27'  
2016-May-23 18:33N 36°46' E 015°33'10 9.5
2016-May-23 17:31N 36°36' E 015°35'47 9.4
2016-May-23 12:33N 35°49' E 015°36'1 0.5
2016-May-23 11:33N 35°49' E 015°35'1 0.6
2016-May-23 10:33N 35°48' E 015°35'1 0.7
2016-May-23 09:32N 35°48' E 015°34'1 0.6
2016-May-23 08:33N 35°48' E 015°33'0 0.5
2016-May-23 07:31N 35°48' E 015°33'1 0.5
2016-May-23 06:24N 35°48' E 015°32'0 0.6
2016-May-23 05:33N 35°48' E 015°32'1 0.6
2016-May-23 04:33N 35°48' E 015°31'1 0.7
2016-May-23 03:33N 35°48' E 015°30'1 0.7
2016-May-23 02:33N 35°48' E 015°29'1 0.6
2016-May-23 01:33N 35°48' E 015°28'1 0.6
2016-May-23 00:33N 35°48' E 015°28'1 0.6
2016-May-22 23:32N 35°49' E 015°27'1 0.6
2016-May-22 22:32N 35°49' E 015°26'1 0.7
2016-May-22 21:33N 35°50' E 015°26'1 0.7
2016-May-22 20:33N 35°50' E 015°25'1 0.6
2016-May-22 19:33N 35°50' E 015°25'1 0.7
2016-May-22 18:34N 35°51' E 015°24'1 0.7
2016-May-22 17:33N 35°52' E 015°24'1 0.7
2016-May-22 16:33N 35°52' E 015°23'1 0.7
2016-May-22 15:33N 35°53' E 015°23'1 0.7
2016-May-22 14:33N 35°53' E 015°22'1 0.8
2016-May-22 13:34N 35°54' E 015°22'1 0.7
2016-May-22 12:33N 35°55' E 015°21'1 0.8
2016-May-22 11:33N 35°55' E 015°21'1 0.8
2016-May-22 10:33N 35°56' E 015°20'1 0.7
2016-May-22 09:33N 35°57' E 015°20'1 0.7
2016-May-22 08:33N 35°57' E 015°19'1 0.8
2016-May-22 07:34N 35°58' E 015°19'1 0.9
2016-May-22 06:18N 35°59' E 015°18'5 0.4
2016-May-21 18:33N 35°60' E 015°24'6 2.8
2016-May-21 16:30N 35°57' E 015°30'1 1.0
2016-May-21 15:31N 35°58' E 015°29'6 4.5
2016-May-21 14:06N 36°01' E 015°22'5 2.7
2016-May-21 12:11N 36°04' E 015°17'2 2.3
2016-May-21 11:33N 36°03' E 015°19'  

Dump ship's entire track history